createdAt,value
2022-10-11T00:01:16.260Z,10.10
2022-10-11T00:03:42.867Z,12.03
2022-10-11T00:06:09.597Z,6.60
2022-10-11T00:08:36.082Z,12.10
2022-10-11T00:11:05.785Z,12.43
2022-10-11T00:13:32.468Z,8.07
2022-10-11T00:15:59.035Z,6.77
2022-10-11T00:18:25.503Z,7.47
2022-10-11T00:21:01.656Z,6.90
2022-10-11T00:23:28.051Z,7.47
2022-10-11T00:26:02.108Z,7.83
2022-10-11T00:28:29.162Z,9.87
2022-10-11T00:30:55.629Z,10.53
2022-10-11T00:33:22.144Z,8.80
2022-10-11T00:35:48.754Z,9.33
2022-10-11T00:38:15.754Z,5.53
2022-10-11T00:40:42.871Z,11.67
2022-10-11T00:43:18.403Z,9.57
2022-10-11T00:45:56.604Z,7.23
2022-10-11T00:48:35.771Z,7.87
2022-10-11T00:51:06.682Z,8.63
2022-10-11T00:53:33.954Z,7.13
2022-10-11T00:56:07.251Z,10.87
2022-10-11T00:58:36.354Z,7.40
2022-10-11T01:01:03.579Z,7.03
2022-10-11T01:03:32.357Z,7.23
2022-10-11T01:05:58.875Z,7.33
2022-10-11T01:08:26.788Z,9.97
2022-10-11T01:10:53.377Z,8.53
2022-10-11T01:13:28.514Z,6.47
2022-10-11T01:15:57.884Z,5.53
2022-10-11T01:18:42.573Z,9.67
2022-10-11T01:21:30.878Z,7.30
2022-10-11T01:24:08.772Z,7.23
2022-10-11T01:26:41.235Z,10.20
2022-10-11T01:29:13.706Z,6.23
2022-10-11T01:32:02.059Z,7.27
2022-10-11T01:34:31.150Z,9.40
2022-10-11T01:37:05.351Z,10.47
2022-10-11T01:39:39.119Z,10.67
2022-10-11T01:42:10.001Z,7.83
2022-10-11T01:44:38.233Z,5.50
2022-10-11T01:47:05.262Z,7.63
2022-10-11T01:49:31.720Z,6.13
2022-10-11T01:52:04.792Z,5.70
2022-10-11T01:55:09.270Z,12.00
2022-10-11T01:57:42.158Z,5.80
2022-10-11T02:00:16.211Z,7.23
2022-10-11T02:03:01.364Z,6.90
2022-10-11T02:05:51.676Z,8.53
2022-10-11T02:08:22.969Z,4.73
2022-10-11T02:11:19.872Z,6.83
2022-10-11T02:13:52.379Z,7.57
2022-10-11T02:16:22.233Z,4.80
2022-10-11T02:18:52.778Z,5.43
2022-10-11T02:21:23.191Z,7.83
2022-10-11T02:24:05.650Z,9.37
2022-10-11T02:26:34.531Z,4.97
2022-10-11T02:29:05.566Z,5.07
2022-10-11T02:31:34.636Z,6.03
2022-10-11T02:34:17.868Z,4.57
2022-10-11T02:40:44.971Z,9.80
2022-10-11T02:54:34.116Z,9.13
2022-10-11T02:57:00.986Z,6.47
2022-10-11T02:59:27.362Z,5.93
2022-10-11T03:01:53.788Z,7.07
2022-10-11T03:04:20.886Z,5.07
2022-10-11T03:06:47.228Z,5.33
2022-10-11T03:09:13.974Z,3.73
2022-10-11T03:11:40.291Z,4.43
2022-10-11T03:14:07.045Z,6.30
2022-10-11T03:16:33.434Z,8.40
2022-10-11T03:18:59.776Z,3.00
2022-10-11T03:21:26.970Z,3.83
2022-10-11T03:23:53.433Z,4.50
2022-10-11T03:26:19.938Z,5.10
2022-10-11T03:28:46.435Z,5.50
2022-10-11T03:31:12.997Z,4.73
2022-10-11T03:33:39.473Z,6.10
2022-10-11T03:36:06.483Z,7.77
2022-10-11T03:38:33.275Z,6.50
2022-10-11T03:40:59.615Z,9.17
2022-10-11T03:43:26.254Z,7.83
2022-10-11T03:45:52.709Z,4.10
2022-10-11T03:48:20.052Z,6.23
2022-10-11T03:50:46.361Z,10.53
2022-10-11T03:53:12.710Z,4.27
2022-10-11T03:55:40.437Z,8.40
2022-10-11T03:58:07.481Z,8.83
2022-10-11T04:00:35.611Z,8.47
2022-10-11T04:03:03.841Z,10.20
2022-10-11T04:05:30.718Z,11.63
2022-10-11T04:07:57.230Z,10.20
2022-10-11T04:10:23.584Z,23.23
2022-10-11T04:12:50.136Z,13.47
2022-10-11T04:15:16.554Z,16.40
2022-10-11T04:17:42.951Z,16.87
2022-10-11T04:20:10.297Z,23.50
2022-10-11T04:22:36.736Z,38.93
2022-10-11T04:25:03.137Z,30.27
2022-10-11T04:27:30.260Z,28.10
2022-10-11T04:29:56.677Z,26.60
2022-10-11T04:32:23.037Z,25.47
2022-10-11T04:34:49.548Z,22.00
2022-10-11T04:37:15.925Z,18.57
2022-10-11T04:39:42.254Z,25.83
2022-10-11T04:42:09.035Z,20.40
2022-10-11T04:44:35.526Z,24.67
2022-10-11T04:47:01.892Z,20.03
2022-10-11T04:49:28.259Z,21.27
2022-10-11T04:51:54.613Z,20.07
2022-10-11T04:54:21.266Z,17.97
2022-10-11T04:56:47.653Z,16.33
2022-10-11T04:59:14.003Z,39.90
2022-10-11T05:01:40.423Z,28.83
2022-10-11T05:04:07.763Z,46.90
2022-10-11T05:06:34.076Z,28.57
2022-10-11T05:09:00.637Z,21.43
2022-10-11T05:11:27.199Z,28.47
2022-10-11T05:13:53.555Z,37.20
2022-10-11T05:16:19.887Z,22.23
2022-10-11T05:18:46.433Z,17.63
2022-10-11T05:21:15.933Z,19.63
2022-10-11T05:23:42.379Z,27.00
2022-10-11T05:26:09.094Z,17.37
2022-10-11T05:28:35.845Z,22.23
2022-10-11T05:31:02.305Z,15.53
2022-10-11T05:33:28.761Z,19.10
2022-10-11T05:35:55.227Z,16.37
2022-10-11T05:38:21.660Z,27.20
2022-10-11T05:40:51.047Z,22.07
2022-10-11T05:43:17.653Z,31.00
2022-10-11T05:45:44.867Z,38.77
2022-10-11T05:48:12.278Z,31.33
2022-10-11T05:50:39.493Z,38.30
2022-10-11T05:53:06.340Z,26.53
2022-10-11T05:55:41.286Z,28.97
2022-10-11T05:58:10.001Z,28.17
2022-10-11T06:00:37.928Z,39.70
2022-10-11T06:03:05.555Z,34.33
2022-10-11T06:05:32.061Z,25.70
2022-10-11T06:07:58.860Z,38.50
2022-10-11T06:10:25.802Z,32.87
2022-10-11T06:12:52.320Z,32.63
2022-10-11T06:15:18.620Z,36.40
2022-10-11T06:17:46.303Z,30.90
2022-10-11T06:20:12.832Z,34.90
2022-10-11T06:22:39.174Z,31.67
2022-10-11T06:25:06.399Z,33.00
2022-10-11T06:27:32.801Z,27.80
2022-10-11T06:29:59.334Z,43.37
2022-10-11T06:32:25.901Z,58.77
2022-10-11T06:34:52.384Z,50.03
2022-10-11T06:37:19.368Z,53.27
2022-10-11T06:39:46.429Z,56.47
2022-10-11T06:42:13.012Z,56.53
2022-10-11T06:44:39.367Z,57.63
2022-10-11T06:47:06.345Z,51.60
2022-10-11T06:49:32.994Z,62.13
2022-10-11T06:51:59.469Z,63.87
2022-10-11T06:54:25.973Z,61.47
2022-10-11T06:56:52.298Z,62.57
2022-10-11T06:59:19.121Z,49.77
2022-10-11T07:01:45.493Z,54.23
2022-10-11T07:04:11.929Z,49.23
2022-10-11T07:06:40.522Z,44.20
2022-10-11T07:09:08.046Z,54.53
2022-10-11T07:11:35.087Z,61.67
2022-10-11T07:14:05.721Z,47.67
2022-10-11T07:16:34.697Z,46.67
2022-10-11T07:19:02.491Z,54.77
2022-10-11T07:21:30.630Z,53.27
2022-10-11T07:23:57.279Z,46.70
2022-10-11T07:26:23.675Z,44.60
2022-10-11T07:28:50.075Z,44.77
2022-10-11T07:31:23.210Z,50.13
2022-10-11T07:33:49.809Z,43.70
2022-10-11T07:36:16.830Z,52.80
2022-10-11T07:38:45.321Z,46.13
2022-10-11T07:41:12.078Z,47.00
2022-10-11T07:43:38.750Z,36.23
2022-10-11T07:46:05.914Z,42.00
2022-10-11T07:48:34.224Z,44.87
2022-10-11T07:51:06.852Z,42.93
2022-10-11T07:53:41.824Z,42.00
2022-10-11T07:56:09.631Z,46.30
2022-10-11T07:58:36.005Z,46.43
2022-10-11T08:01:02.523Z,44.53
2022-10-11T08:03:29.563Z,50.63
2022-10-11T08:06:03.654Z,45.17
2022-10-11T08:08:31.176Z,49.43
2022-10-11T08:10:59.156Z,50.03
2022-10-11T08:13:26.237Z,45.70
2022-10-11T08:15:53.037Z,40.23
2022-10-11T08:18:19.522Z,42.93
2022-10-11T08:20:46.018Z,46.47
2022-10-11T08:23:12.907Z,32.57
2022-10-11T08:25:42.317Z,34.03
2022-10-11T08:28:09.769Z,34.17
2022-10-11T08:30:36.699Z,36.77
2022-10-11T08:33:08.305Z,37.47
2022-10-11T08:35:36.212Z,32.57
2022-10-11T08:38:02.749Z,35.30
2022-10-11T08:40:34.303Z,32.23
2022-10-11T08:43:13.927Z,28.77
2022-10-11T08:45:48.853Z,37.83
2022-10-11T08:48:22.919Z,41.27
2022-10-11T08:50:52.297Z,34.73
2022-10-11T08:53:26.729Z,35.00
2022-10-11T08:55:54.928Z,34.70
2022-10-11T08:58:25.819Z,33.03
2022-10-11T09:00:54.033Z,33.23
2022-10-11T09:03:40.295Z,36.97
2022-10-11T09:06:19.892Z,40.57
2022-10-11T09:09:18.473Z,33.80
2022-10-11T09:12:05.539Z,35.90
2022-10-11T09:14:55.218Z,35.90
2022-10-11T09:17:43.549Z,32.10
2022-10-11T09:20:21.461Z,41.63
2022-10-11T09:22:56.992Z,39.47
2022-10-11T09:25:29.101Z,36.50
2022-10-11T09:28:14.209Z,37.03
2022-10-11T09:30:56.454Z,41.87
2022-10-11T09:33:34.415Z,40.67
2022-10-11T09:36:02.487Z,37.33
2022-10-11T09:38:48.389Z,32.17
2022-10-11T09:41:18.325Z,37.03
2022-10-11T09:43:48.645Z,34.97
2022-10-11T09:46:40.995Z,30.73
2022-10-11T09:49:19.290Z,29.27
2022-10-11T09:51:52.554Z,28.33
2022-10-11T09:54:20.630Z,27.63
2022-10-11T09:56:47.248Z,29.83
2022-10-11T09:59:30.106Z,28.37
2022-10-11T10:02:15.249Z,31.40
2022-10-11T10:05:11.186Z,27.07
2022-10-11T10:07:40.869Z,26.70
2022-10-11T10:10:28.399Z,27.47
2022-10-11T10:12:58.825Z,27.83
2022-10-11T10:15:30.077Z,27.00
2022-10-11T10:17:57.764Z,29.00
2022-10-11T10:20:36.039Z,27.13
2022-10-11T10:23:20.398Z,23.83
2022-10-11T10:25:51.173Z,28.13
2022-10-11T10:28:17.624Z,29.33
2022-10-11T10:30:55.588Z,25.10
2022-10-11T10:33:34.828Z,23.47
2022-10-11T10:36:15.239Z,25.50
2022-10-11T10:39:15.860Z,26.97
2022-10-11T10:41:42.552Z,23.33
2022-10-11T10:44:10.631Z,23.40
2022-10-11T10:46:36.981Z,26.20
2022-10-11T10:49:41.115Z,21.23
2022-10-11T10:52:17.468Z,22.87
2022-10-11T10:55:25.849Z,23.83
2022-10-11T10:58:01.029Z,28.27
2022-10-11T11:00:34.258Z,23.77
2022-10-11T11:03:12.427Z,21.87
2022-10-11T11:06:01.894Z,22.93
2022-10-11T11:09:12.994Z,25.63
2022-10-11T11:11:53.979Z,23.97
2022-10-11T11:14:43.987Z,25.63
2022-10-11T11:17:28.895Z,25.03
2022-10-11T11:20:09.337Z,22.00
2022-10-11T11:23:21.187Z,19.90
2022-10-11T11:26:22.964Z,21.67
2022-10-11T11:29:11.513Z,24.10
2022-10-11T11:31:59.815Z,18.93
2022-10-11T11:34:33.313Z,17.07
2022-10-11T11:37:19.965Z,25.00
2022-10-11T11:39:50.383Z,20.27
2022-10-11T11:42:39.270Z,21.37
2022-10-11T11:45:17.616Z,15.13
2022-10-11T11:47:50.521Z,19.93
2022-10-11T11:50:23.414Z,20.27
2022-10-11T11:53:00.227Z,17.83
2022-10-11T11:55:37.641Z,20.73
2022-10-11T11:58:24.180Z,15.90
2022-10-11T12:01:28.823Z,15.97
2022-10-11T12:04:05.042Z,12.57
2022-10-11T12:06:37.935Z,15.27
2022-10-11T12:09:27.490Z,18.83
2022-10-11T12:12:00.593Z,11.53
2022-10-11T12:14:33.087Z,11.53
2022-10-11T12:17:11.421Z,21.30
2022-10-11T12:19:40.557Z,14.27
2022-10-11T12:22:27.983Z,15.27
2022-10-11T12:24:56.676Z,13.93
2022-10-11T12:27:41.554Z,11.23
2022-10-11T12:30:48.171Z,15.47
2022-10-11T12:33:23.818Z,13.67
2022-10-11T12:35:53.300Z,10.43
2022-10-11T12:38:25.721Z,13.97
2022-10-11T12:40:56.211Z,11.93
2022-10-11T12:43:27.288Z,12.37
2022-10-11T12:45:54.001Z,10.70
2022-10-11T12:48:46.575Z,12.93
2022-10-11T12:51:36.439Z,9.27
2022-10-11T12:54:28.223Z,9.47
2022-10-11T12:57:09.656Z,11.97
2022-10-11T12:59:43.143Z,9.63
2022-10-11T13:02:39.265Z,9.10
2022-10-11T13:05:18.176Z,11.07
2022-10-11T13:07:45.175Z,11.20
2022-10-11T13:10:16.361Z,10.07
2022-10-11T13:12:46.185Z,13.60
2022-10-11T13:15:16.853Z,13.53
2022-10-11T13:17:44.190Z,9.07
2022-10-11T13:20:23.720Z,6.23
2022-10-11T13:22:53.885Z,12.77
2022-10-11T13:25:23.575Z,6.10
2022-10-11T13:27:52.586Z,10.60
2022-10-11T13:30:29.559Z,8.87
2022-10-11T13:33:00.431Z,11.20
2022-10-11T13:35:34.431Z,10.90
2022-10-11T13:38:01.746Z,8.47
2022-10-11T13:40:29.952Z,9.87
2022-10-11T13:42:57.435Z,7.30
2022-10-11T13:45:26.362Z,7.43
2022-10-11T13:47:54.608Z,7.67
2022-10-11T13:50:34.634Z,7.97
2022-10-11T13:53:05.103Z,7.00
2022-10-11T13:55:54.416Z,6.87
2022-10-11T13:58:30.268Z,8.13
2022-10-11T14:00:59.824Z,7.97
2022-10-11T14:03:38.887Z,7.70
2022-10-11T14:06:05.727Z,8.60
2022-10-11T14:08:44.180Z,7.17
2022-10-11T14:11:12.349Z,5.60
2022-10-11T14:13:44.735Z,8.27
2022-10-11T14:16:18.608Z,6.63
2022-10-11T14:18:48.976Z,6.13
2022-10-11T14:21:28.194Z,7.60
2022-10-11T14:23:57.739Z,7.07
2022-10-11T14:26:26.815Z,10.67
2022-10-11T14:28:59.275Z,7.53
2022-10-11T14:31:26.749Z,6.37
2022-10-11T14:33:57.897Z,6.97
2022-10-11T14:36:24.950Z,7.37
2022-10-11T14:38:52.523Z,5.53
2022-10-11T14:41:19.586Z,11.70
2022-10-11T14:43:46.119Z,8.60
2022-10-11T14:46:25.634Z,7.73
2022-10-11T14:48:55.946Z,8.87
2022-10-11T14:51:27.500Z,6.23
2022-10-11T14:53:54.245Z,6.03
2022-10-11T14:56:21.800Z,6.30
2022-10-11T14:58:48.913Z,7.87
2022-10-11T15:01:16.841Z,5.47
2022-10-11T15:03:43.444Z,7.23
2022-10-11T15:06:29.279Z,9.23
2022-10-11T15:08:55.954Z,8.83
2022-10-11T15:11:23.596Z,7.87
2022-10-11T15:13:50.595Z,9.93
2022-10-11T15:16:19.596Z,9.90
2022-10-11T15:18:50.968Z,8.00
2022-10-11T15:21:23.346Z,8.93
2022-10-11T15:23:51.072Z,13.33
2022-10-11T15:26:24.234Z,6.10
2022-10-11T15:28:52.900Z,7.83
2022-10-11T15:31:20.040Z,5.63
2022-10-11T15:33:47.045Z,5.13
2022-10-11T15:36:19.059Z,6.73
2022-10-11T15:38:46.371Z,8.00
2022-10-11T15:41:15.608Z,10.63
2022-10-11T15:43:43.740Z,6.20
2022-10-11T15:46:14.857Z,10.73
2022-10-11T15:48:41.427Z,9.63
2022-10-11T15:51:07.922Z,10.60
2022-10-11T15:53:35.309Z,6.83
2022-10-11T15:56:06.109Z,10.97
2022-10-11T15:58:39.216Z,9.23
2022-10-11T16:01:09.341Z,8.07
2022-10-11T16:03:36.108Z,9.53
2022-10-11T16:06:05.426Z,10.50
2022-10-11T16:08:32.446Z,10.70
2022-10-11T16:10:59.193Z,8.17
2022-10-11T16:13:25.591Z,7.67
2022-10-11T16:15:51.993Z,7.30
2022-10-11T16:18:21.020Z,5.87
2022-10-11T16:20:49.955Z,9.53
2022-10-11T16:23:17.017Z,8.33
2022-10-11T16:25:43.379Z,9.27
2022-10-11T16:28:10.589Z,10.70
2022-10-11T16:30:43.196Z,8.03
2022-10-11T16:33:10.093Z,8.53
2022-10-11T16:35:40.466Z,8.77
2022-10-11T16:38:06.849Z,12.53
2022-10-11T16:40:35.748Z,8.63
2022-10-11T16:43:07.368Z,9.43
2022-10-11T16:45:34.223Z,11.20
2022-10-11T16:48:01.054Z,12.13
2022-10-11T16:50:27.549Z,11.57
2022-10-11T16:52:55.506Z,11.83
2022-10-11T16:55:23.051Z,10.60
2022-10-11T16:57:49.453Z,11.60
2022-10-11T17:00:16.561Z,13.07
2022-10-11T17:02:42.949Z,10.57
2022-10-11T17:05:09.326Z,11.87
2022-10-11T17:07:35.981Z,8.50
2022-10-11T17:10:02.681Z,13.87
2022-10-11T17:12:29.474Z,10.97
2022-10-11T17:14:56.277Z,13.27
2022-10-11T17:17:22.809Z,12.37
2022-10-11T17:19:49.305Z,11.23
2022-10-11T17:22:18.926Z,12.90
2022-10-11T17:24:45.941Z,9.97
2022-10-11T17:27:12.582Z,8.33
2022-10-11T17:29:39.196Z,13.17
2022-10-11T17:32:06.095Z,9.60
2022-10-11T17:34:32.897Z,8.43
2022-10-11T17:36:59.322Z,13.37
2022-10-11T17:39:25.859Z,10.90
2022-10-11T17:41:53.076Z,14.00
2022-10-11T17:44:20.152Z,13.70
2022-10-11T17:46:47.500Z,14.90
2022-10-11T17:49:14.367Z,13.77
2022-10-11T17:51:41.667Z,11.40
2022-10-11T17:54:12.926Z,16.13
2022-10-11T17:56:41.273Z,15.37
2022-10-11T17:59:11.645Z,16.83
2022-10-11T18:01:38.248Z,13.07
2022-10-11T18:04:06.363Z,13.40
2022-10-11T18:06:38.575Z,12.13
2022-10-11T18:09:05.067Z,11.40
2022-10-11T18:11:32.198Z,12.33
2022-10-11T18:13:58.739Z,12.57
2022-10-11T18:16:27.051Z,12.23
2022-10-11T18:18:54.171Z,13.80
2022-10-11T18:21:20.586Z,10.37
2022-10-11T18:23:47.003Z,11.70
2022-10-11T18:26:16.545Z,12.80
2022-10-11T18:28:44.162Z,13.13
2022-10-11T18:31:14.876Z,17.03
2022-10-11T18:33:43.026Z,14.03
2022-10-11T18:36:12.157Z,10.57
2022-10-11T18:38:39.696Z,13.73
2022-10-11T18:41:09.003Z,17.23
2022-10-11T18:43:35.578Z,14.47
2022-10-11T18:46:10.660Z,12.77
2022-10-11T18:48:41.207Z,14.73
2022-10-11T18:51:18.331Z,16.40
2022-10-11T18:53:45.664Z,15.13
2022-10-11T18:56:13.390Z,12.90
2022-10-11T18:58:42.889Z,16.80
2022-10-11T19:01:13.027Z,11.93
2022-10-11T19:03:39.538Z,14.10
2022-10-11T19:06:16.782Z,13.93
2022-10-11T19:08:47.252Z,11.67
2022-10-11T19:11:21.541Z,11.87
2022-10-11T19:13:55.243Z,10.70
2022-10-11T19:16:21.663Z,8.27
2022-10-11T19:18:51.936Z,14.23
2022-10-11T19:21:18.889Z,17.37
2022-10-11T19:23:47.415Z,12.00
2022-10-11T19:26:27.135Z,14.03
2022-10-11T19:29:01.377Z,9.83
2022-10-11T19:31:28.851Z,15.27
2022-10-11T19:33:57.276Z,11.27
2022-10-11T19:36:24.436Z,17.07
2022-10-11T19:38:51.773Z,13.13
2022-10-11T19:41:19.745Z,9.93
2022-10-11T19:43:46.874Z,11.60
2022-10-11T19:46:27.339Z,9.47
2022-10-11T19:49:02.681Z,15.17
2022-10-11T19:51:30.720Z,10.73
2022-10-11T19:54:07.783Z,10.97
2022-10-11T19:56:34.460Z,12.77
2022-10-11T19:59:02.161Z,14.10
2022-10-11T20:01:31.185Z,12.10
2022-10-11T20:04:03.854Z,14.03
2022-10-11T20:06:37.232Z,11.63
2022-10-11T20:09:28.106Z,12.43
2022-10-11T20:11:51.558Z,17.87
2022-10-11T20:14:17.910Z,15.53
2022-10-11T20:16:44.299Z,15.63
2022-10-11T20:19:10.887Z,14.30
2022-10-11T20:21:37.288Z,15.60
2022-10-11T20:24:03.893Z,14.37
2022-10-11T20:26:30.838Z,14.50
2022-10-11T20:28:58.057Z,10.73
2022-10-11T20:31:32.121Z,13.20
2022-10-11T20:34:02.071Z,11.27
2022-10-11T20:36:30.088Z,13.37
2022-10-11T20:38:58.586Z,15.90
2022-10-11T20:41:33.440Z,15.23
2022-10-11T20:44:01.567Z,15.63
2022-10-11T20:46:31.682Z,12.43
2022-10-11T20:49:04.217Z,11.83
2022-10-11T20:51:32.572Z,12.20
2022-10-11T20:53:59.690Z,10.97
2022-10-11T20:56:28.382Z,11.70
2022-10-11T20:58:58.797Z,7.97
2022-10-11T21:01:34.585Z,9.40
2022-10-11T21:04:01.775Z,10.93
2022-10-11T21:06:30.543Z,11.33
2022-10-11T21:08:59.188Z,10.47
2022-10-11T21:11:28.154Z,13.77
2022-10-11T21:13:59.232Z,17.63
2022-10-11T21:16:27.038Z,11.03
2022-10-11T21:18:56.256Z,11.40
2022-10-11T21:21:25.750Z,9.40
2022-10-11T21:24:02.173Z,10.67
2022-10-11T21:26:30.065Z,9.93
2022-10-11T21:28:59.326Z,9.20
2022-10-11T21:31:29.758Z,10.67
2022-10-11T21:34:00.283Z,8.93
2022-10-11T21:36:26.968Z,8.93
2022-10-11T21:38:54.272Z,8.70
2022-10-11T21:41:23.216Z,10.63
2022-10-11T21:43:49.727Z,9.57
2022-10-11T21:46:22.219Z,12.50
2022-10-11T21:48:52.182Z,11.53
2022-10-11T21:51:31.054Z,12.30
2022-10-11T21:54:00.414Z,9.70
2022-10-11T21:56:28.248Z,12.67
2022-10-11T21:58:55.110Z,13.53
2022-10-11T22:01:22.543Z,9.50
2022-10-11T22:03:49.511Z,8.07
2022-10-11T22:06:16.065Z,9.23
2022-10-11T22:08:42.682Z,10.10
2022-10-11T22:11:10.103Z,7.07
2022-10-11T22:13:36.927Z,9.60
2022-10-11T22:16:05.386Z,11.37
2022-10-11T22:18:33.646Z,10.23
2022-10-11T22:21:09.867Z,6.30
2022-10-11T22:23:36.500Z,7.70
2022-10-11T22:26:05.121Z,10.40
2022-10-11T22:28:31.770Z,9.57
2022-10-11T22:30:58.320Z,12.83
2022-10-11T22:33:25.523Z,8.27
2022-10-11T22:35:59.144Z,9.10
2022-10-11T22:38:26.356Z,9.60
2022-10-11T22:40:52.861Z,7.40
2022-10-11T22:43:19.330Z,6.83
2022-10-11T22:45:46.342Z,8.93
2022-10-11T22:48:13.170Z,10.83
2022-10-11T22:50:39.691Z,11.00
2022-10-11T22:53:07.425Z,5.63
2022-10-11T22:55:34.536Z,7.07
2022-10-11T22:58:01.380Z,8.57
2022-10-11T23:00:28.089Z,6.73
2022-10-11T23:02:54.564Z,8.63
2022-10-11T23:05:20.998Z,10.13
2022-10-11T23:07:47.673Z,8.60
2022-10-11T23:10:14.482Z,8.83
2022-10-11T23:12:40.956Z,7.30
2022-10-11T23:15:08.338Z,10.83
2022-10-11T23:17:34.933Z,7.67
2022-10-11T23:20:01.825Z,7.27
2022-10-11T23:22:28.394Z,6.40
2022-10-11T23:24:55.001Z,8.60
2022-10-11T23:27:21.550Z,8.30
2022-10-11T23:29:48.023Z,11.97
2022-10-11T23:32:14.481Z,6.13
2022-10-11T23:34:40.984Z,8.37
2022-10-11T23:37:07.477Z,7.50
2022-10-11T23:39:33.896Z,9.80
2022-10-11T23:42:00.363Z,10.17
2022-10-11T23:44:26.855Z,12.60
2022-10-11T23:46:53.231Z,13.43
2022-10-11T23:49:19.632Z,11.20
2022-10-11T23:51:46.233Z,12.20
2022-10-11T23:54:12.866Z,8.17
2022-10-11T23:56:39.316Z,7.17
2022-10-11T23:59:05.863Z,8.23
